Time;durP1;ratioP1;P1;durP2;ratioP2;P2;SDS_P1;SDS_P2;PMS_P1;PMS_P2;Temp;Humidity;BMP_temperature;BMP_pressure;BME280_temperature;BME280_humidity;BME280_pressure;Samples;Min_cycle;Max_cycle;Signal;HPM_P1;HPM_P2
2023/05/15 00:00:02;;;;;;;6.15;5.65;;;;;;;;;;5071737;28;20457;-57
2023/05/15 00:02:28;;;;;;;7.03;5.60;;;;;;;;;;5071701;28;20406;-57
2023/05/15 00:04:54;;;;;;;6.05;5.55;;;;;;;;;;5071364;28;20415;-57
2023/05/15 00:07:22;;;;;;;6.67;6.00;;;;;;;;;;5071741;28;20480;-58
2023/05/15 00:09:48;;;;;;;6.60;6.00;;;;;;;;;;5071468;28;20505;-58
2023/05/15 00:12:14;;;;;;;6.78;6.18;;;;;;;;;;5071513;28;20404;-58
2023/05/15 00:14:40;;;;;;;6.63;6.00;;;;;;;;;;5071257;28;20403;-58
2023/05/15 00:17:06;;;;;;;7.78;6.22;;;;;;;;;;5071393;28;20407;-58
2023/05/15 00:19:32;;;;;;;6.85;6.25;;;;;;;;;;5071574;28;20449;-58
2023/05/15 00:21:58;;;;;;;6.45;5.82;;;;;;;;;;5070256;28;20776;-58
2023/05/15 00:24:25;;;;;;;6.53;5.93;;;;;;;;;;5071230;28;20410;-58
2023/05/15 00:26:51;;;;;;;6.38;5.88;;;;;;;;;;5071263;28;20415;-57
2023/05/15 00:29:17;;;;;;;6.65;6.03;;;;;;;;;;5071104;28;20451;-58
2023/05/15 00:31:44;;;;;;;6.30;5.80;;;;;;;;;;5071021;28;20924;-58
2023/05/15 00:34:10;;;;;;;6.28;5.78;;;;;;;;;;5070951;28;20429;-57
2023/05/15 00:36:36;;;;;;;7.07;6.47;;;;;;;;;;5071216;28;20478;-58
2023/05/15 00:39:02;;;;;;;6.55;6.03;;;;;;;;;;5070833;28;20479;-57
2023/05/15 00:41:31;;;;;;;6.80;6.20;;;;;;;;;;5070947;28;20470;-57
2023/05/15 00:43:59;;;;;;;6.75;6.15;;;;;;;;;;5070653;28;20403;-57
2023/05/15 00:46:26;;;;;;;6.88;6.18;;;;;;;;;;5070770;28;20395;-57
2023/05/15 00:48:53;;;;;;;7.45;6.43;;;;;;;;;;5070619;28;20416;-57
2023/05/15 00:51:19;;;;;;;7.20;6.60;;;;;;;;;;5070882;28;20406;-57
2023/05/15 00:53:45;;;;;;;6.95;6.35;;;;;;;;;;5070481;28;20412;-57
2023/05/15 00:56:11;;;;;;;7.50;6.83;;;;;;;;;;5070688;28;20396;-58
2023/05/15 00:58:39;;;;;;;6.72;6.13;;;;;;;;;;5070748;28;20487;-58
2023/05/15 01:01:05;;;;;;;7.50;6.80;;;;;;;;;;5070724;28;20412;-58
2023/05/15 01:03:31;;;;;;;6.80;6.20;;;;;;;;;;5070382;28;20395;-57
2023/05/15 01:05:57;;;;;;;6.82;6.22;;;;;;;;;;5070391;28;20486;-57
2023/05/15 01:08:26;;;;;;;6.80;6.20;;;;;;;;;;5070447;28;20507;-57
2023/05/15 01:10:53;;;;;;;6.72;6.13;;;;;;;;;;5070430;28;20398;-57
2023/05/15 01:13:20;;;;;;;8.70;7.85;;;;;;;;;;5070380;28;20421;-57
2023/05/15 01:15:48;;;;;;;7.45;6.80;;;;;;;;;;5070238;28;20461;-57
2023/05/15 01:18:15;;;;;;;7.63;6.90;;;;;;;;;;5070162;28;20410;-57
2023/05/15 01:20:47;;;;;;;7.80;7.10;;;;;;;;;;5070249;28;20411;-57
2023/05/15 01:23:20;;;;;;;7.90;7.20;;;;;;;;;;5070229;28;20495;-57
2023/05/15 01:25:54;;;;;;;7.82;7.13;;;;;;;;;;5070144;28;20453;-58
2023/05/15 01:28:26;;;;;;;7.90;7.10;;;;;;;;;;5070259;28;20473;-57
2023/05/15 01:30:54;;;;;;;8.20;7.40;;;;;;;;;;5070196;28;20414;-57
2023/05/15 01:33:22;;;;;;;7.55;6.85;;;;;;;;;;5070160;28;20404;-57
2023/05/15 01:35:50;;;;;;;7.80;7.10;;;;;;;;;;5070006;28;20423;-58
2023/05/15 01:38:19;;;;;;;7.30;6.60;;;;;;;;;;5069976;28;20770;-57
2023/05/15 01:40:48;;;;;;;6.95;6.35;;;;;;;;;;5069973;28;20400;-57
2023/05/15 01:43:18;;;;;;;6.97;6.38;;;;;;;;;;5070059;28;20418;-57
2023/05/15 01:45:45;;;;;;;7.35;6.65;;;;;;;;;;5070164;28;20745;-55
2023/05/15 01:48:12;;;;;;;6.80;6.22;;;;;;;;;;5069840;28;20416;-57
2023/05/15 01:50:38;;;;;;;6.47;5.95;;;;;;;;;;5070212;28;20404;-57
2023/05/15 01:53:05;;;;;;;6.38;5.88;;;;;;;;;;5070026;28;20881;-57
2023/05/15 01:55:31;;;;;;;8.10;7.30;;;;;;;;;;5070039;28;20465;-57
2023/05/15 01:58:00;;;;;;;12.73;9.00;;;;;;;;;;5069712;28;20400;-58
2023/05/15 02:00:26;;;;;;;8.13;7.32;;;;;;;;;;5070019;28;20486;-55
2023/05/15 02:02:53;;;;;;;8.30;7.38;;;;;;;;;;5069900;28;20416;-58
2023/05/15 02:05:20;;;;;;;8.20;7.40;;;;;;;;;;5068547;28;20786;-58
2023/05/15 02:07:46;;;;;;;7.70;7.05;;;;;;;;;;5069694;28;20408;-58
2023/05/15 02:10:12;;;;;;;8.02;7.43;;;;;;;;;;5069743;28;20400;-58
2023/05/15 02:12:39;;;;;;;7.17;6.57;;;;;;;;;;5069597;28;20409;-58
2023/05/15 02:15:07;;;;;;;6.88;6.35;;;;;;;;;;5069764;28;20412;-58
2023/05/15 02:17:33;;;;;;;8.20;7.50;;;;;;;;;;5069740;28;20411;-58
2023/05/15 02:20:00;;;;;;;7.20;6.60;;;;;;;;;;5069508;28;20388;-58
2023/05/15 02:22:26;;;;;;;7.35;6.68;;;;;;;;;;5069697;28;20416;-57
2023/05/15 02:24:52;;;;;;;6.93;6.32;;;;;;;;;;5069697;28;20413;-58
2023/05/15 02:27:20;;;;;;;6.97;6.47;;;;;;;;;;5069540;28;20396;-58
2023/05/15 02:29:51;;;;;;;7.20;6.50;;;;;;;;;;5069360;28;20422;-57
2023/05/15 02:32:22;;;;;;;6.90;6.40;;;;;;;;;;5069583;28;20407;-58
2023/05/15 02:34:52;;;;;;;6.70;6.20;;;;;;;;;;5069496;28;20412;-58
2023/05/15 02:37:24;;;;;;;6.68;6.15;;;;;;;;;;5069668;28;20423;-58
2023/05/15 02:39:53;;;;;;;7.45;6.50;;;;;;;;;;5069514;28;20540;-57
2023/05/15 02:42:19;;;;;;;7.53;6.82;;;;;;;;;;5069609;28;20408;-58
2023/05/15 02:44:46;;;;;;;7.15;6.45;;;;;;;;;;5071004;28;20403;-56
2023/05/15 02:47:12;;;;;;;8.48;7.10;;;;;;;;;;5072936;28;20882;-56
2023/05/15 02:49:38;;;;;;;7.32;6.72;;;;;;;;;;5073024;28;20475;-56
2023/05/15 02:52:05;;;;;;;7.82;7.05;;;;;;;;;;5072964;28;20677;-56
2023/05/15 02:54:32;;;;;;;7.10;6.50;;;;;;;;;;5072915;28;20479;-56
2023/05/15 02:56:58;;;;;;;7.00;6.43;;;;;;;;;;5072725;28;20408;-56
2023/05/15 02:59:24;;;;;;;6.85;6.28;;;;;;;;;;5072812;28;20396;-56
2023/05/15 03:01:50;;;;;;;6.88;6.25;;;;;;;;;;5072848;28;20977;-56
2023/05/15 03:04:16;;;;;;;8.88;7.03;;;;;;;;;;5072632;28;20407;-56
2023/05/15 03:06:42;;;;;;;7.70;7.10;;;;;;;;;;5072640;28;20793;-56
2023/05/15 03:09:08;;;;;;;7.88;7.07;;;;;;;;;;5072506;28;20502;-56
2023/05/15 03:11:36;;;;;;;7.63;6.97;;;;;;;;;;5072682;28;20391;-56
2023/05/15 03:14:02;;;;;;;7.35;6.75;;;;;;;;;;5072484;28;20411;-56
2023/05/15 03:16:28;;;;;;;7.25;6.65;;;;;;;;;;5072537;28;20424;-56
2023/05/15 03:18:54;;;;;;;8.07;7.28;;;;;;;;;;5072337;28;20399;-56
2023/05/15 03:21:20;;;;;;;7.22;6.63;;;;;;;;;;5072394;28;20473;-56
2023/05/15 03:23:46;;;;;;;8.10;7.50;;;;;;;;;;5072388;28;20396;-56
2023/05/15 03:26:12;;;;;;;9.20;8.32;;;;;;;;;;5072108;28;20825;-56
2023/05/15 03:28:39;;;;;;;9.60;8.70;;;;;;;;;;5071686;28;20435;-56
2023/05/15 03:31:07;;;;;;;10.35;9.40;;;;;;;;;;5071578;28;20960;-56
2023/05/15 03:33:33;;;;;;;8.88;8.07;;;;;;;;;;5072325;28;20450;-56
2023/05/15 03:35:59;;;;;;;8.30;7.60;;;;;;;;;;5071817;28;20423;-56
2023/05/15 03:38:25;;;;;;;8.38;7.68;;;;;;;;;;5071836;28;20391;-56
2023/05/15 03:40:51;;;;;;;8.48;7.78;;;;;;;;;;5072111;28;20491;-56
2023/05/15 03:43:17;;;;;;;7.43;6.83;;;;;;;;;;5071884;28;20463;-56
2023/05/15 03:45:44;;;;;;;7.18;6.68;;;;;;;;;;5072013;28;20450;-57
2023/05/15 03:48:10;;;;;;;7.40;6.80;;;;;;;;;;5071722;28;20420;-56
2023/05/15 03:50:38;;;;;;;7.03;6.43;;;;;;;;;;5071960;28;20758;-56
2023/05/15 03:53:04;;;;;;;8.10;7.50;;;;;;;;;;5071734;28;21009;-57
2023/05/15 03:55:30;;;;;;;7.50;6.90;;;;;;;;;;5071733;28;20431;-56
2023/05/15 03:57:56;;;;;;;7.43;6.82;;;;;;;;;;5071611;28;20442;-57
2023/05/15 04:00:22;;;;;;;7.97;7.20;;;;;;;;;;5071759;28;20467;-56
2023/05/15 04:02:49;;;;;;;7.88;7.25;;;;;;;;;;5071696;28;20404;-56
2023/05/15 04:05:18;;;;;;;7.85;7.13;;;;;;;;;;5071347;28;20404;-56
2023/05/15 04:07:44;;;;;;;7.88;7.20;;;;;;;;;;5071563;28;20499;-56
2023/05/15 04:10:10;;;;;;;7.53;6.95;;;;;;;;;;5071250;28;20412;-58
2023/05/15 04:12:36;;;;;;;7.30;6.70;;;;;;;;;;5071476;28;20410;-58
2023/05/15 04:15:15;;;;;;;7.40;6.80;;;;;;;;;;5071324;28;20402;-56
2023/05/15 04:17:41;;;;;;;7.35;6.75;;;;;;;;;;5071308;28;20396;-58
2023/05/15 04:20:10;;;;;;;7.47;6.87;;;;;;;;;;5071289;28;20388;-56
2023/05/15 04:22:36;;;;;;;7.67;6.97;;;;;;;;;;5071445;28;20427;-56
2023/05/15 04:25:03;;;;;;;7.88;7.18;;;;;;;;;;5071046;28;20482;-56
2023/05/15 04:27:29;;;;;;;8.20;7.57;;;;;;;;;;5071026;28;20427;-56
2023/05/15 04:29:55;;;;;;;9.07;8.30;;;;;;;;;;5070913;28;20898;-56
2023/05/15 04:32:21;;;;;;;10.70;9.70;;;;;;;;;;5071012;28;20411;-56
2023/05/15 04:34:47;;;;;;;9.27;8.38;;;;;;;;;;5070870;28;20906;-56
2023/05/15 04:37:14;;;;;;;9.23;8.43;;;;;;;;;;5070746;28;20430;-56
2023/05/15 04:39:40;;;;;;;10.20;9.27;;;;;;;;;;5070799;28;20412;-56
2023/05/15 04:42:06;;;;;;;9.25;8.48;;;;;;;;;;5070721;28;20403;-56
2023/05/15 04:44:32;;;;;;;9.35;8.35;;;;;;;;;;5070980;28;20435;-58
2023/05/15 04:46:58;;;;;;;10.70;8.63;;;;;;;;;;5070620;28;20402;-58
2023/05/15 04:49:25;;;;;;;8.48;7.78;;;;;;;;;;5070445;28;20411;-58
2023/05/15 04:51:51;;;;;;;8.32;7.63;;;;;;;;;;5070744;28;20406;-58
2023/05/15 04:54:19;;;;;;;8.02;7.32;;;;;;;;;;5070437;28;20411;-58
2023/05/15 04:56:45;;;;;;;7.95;7.35;;;;;;;;;;5070466;28;20920;-58
2023/05/15 04:59:12;;;;;;;8.30;7.63;;;;;;;;;;5070558;28;20478;-58
2023/05/15 05:01:38;;;;;;;8.20;7.50;;;;;;;;;;5070651;28;20404;-58
2023/05/15 05:04:04;;;;;;;8.40;7.70;;;;;;;;;;5070435;28;20396;-58
2023/05/15 05:06:30;;;;;;;7.65;6.88;;;;;;;;;;5070332;28;20910;-58
2023/05/15 05:08:56;;;;;;;8.20;7.57;;;;;;;;;;5069876;28;20412;-58
2023/05/15 05:11:24;;;;;;;7.63;7.03;;;;;;;;;;5070249;28;20874;-58
2023/05/15 05:13:50;;;;;;;7.73;7.03;;;;;;;;;;5070227;28;20491;-58
2023/05/15 05:16:16;;;;;;;7.32;6.72;;;;;;;;;;5069854;28;20430;-57
2023/05/15 05:18:42;;;;;;;7.40;6.80;;;;;;;;;;5069942;28;20391;-58
2023/05/15 05:21:08;;;;;;;6.90;6.40;;;;;;;;;;5069979;28;20398;-58
2023/05/15 05:23:34;;;;;;;8.00;7.40;;;;;;;;;;5070223;28;20877;-58
2023/05/15 05:26:00;;;;;;;7.77;7.17;;;;;;;;;;5070013;28;20396;-56
2023/05/15 05:28:28;;;;;;;8.25;7.50;;;;;;;;;;5069721;28;20418;-56
2023/05/15 05:30:54;;;;;;;8.85;8.15;;;;;;;;;;5069981;28;20445;-56
2023/05/15 05:33:20;;;;;;;8.27;7.57;;;;;;;;;;5070016;28;20404;-56
2023/05/15 05:35:46;;;;;;;7.63;6.97;;;;;;;;;;5069767;28;20419;-56
2023/05/15 05:38:12;;;;;;;7.73;7.13;;;;;;;;;;5069736;28;20437;-56
2023/05/15 05:40:38;;;;;;;7.95;7.35;;;;;;;;;;5070334;28;20403;-57
2023/05/15 05:43:04;;;;;;;7.68;6.97;;;;;;;;;;5070021;28;20449;-58
2023/05/15 05:45:31;;;;;;;8.05;7.28;;;;;;;;;;5069782;28;20487;-58
2023/05/15 05:47:57;;;;;;;7.90;7.20;;;;;;;;;;5069893;28;20411;-57
2023/05/15 05:50:23;;;;;;;7.72;7.03;;;;;;;;;;5069509;28;20410;-57
2023/05/15 05:52:50;;;;;;;8.30;7.60;;;;;;;;;;5070080;28;20427;-57
2023/05/15 05:55:16;;;;;;;8.68;7.90;;;;;;;;;;5069671;28;20422;-63
2023/05/15 05:57:42;;;;;;;8.65;7.95;;;;;;;;;;5069804;28;20614;-58
2023/05/15 06:00:09;;;;;;;8.35;7.70;;;;;;;;;;5069750;28;20901;-58
2023/05/15 06:02:37;;;;;;;8.05;7.45;;;;;;;;;;5069902;28;20486;-59
2023/05/15 06:05:03;;;;;;;8.00;7.40;;;;;;;;;;5069818;28;20960;-58
2023/05/15 06:07:39;;;;;;;8.82;7.90;;;;;;;;;;5069953;28;20403;-58
2023/05/15 06:10:08;;;;;;;7.87;7.27;;;;;;;;;;5069799;28;20411;-58
2023/05/15 06:12:34;;;;;;;8.50;7.70;;;;;;;;;;5069698;28;20920;-58
2023/05/15 06:15:00;;;;;;;8.50;7.70;;;;;;;;;;5069341;28;20758;-58
2023/05/15 06:17:26;;;;;;;8.05;7.40;;;;;;;;;;5069500;28;20418;-57
2023/05/15 06:19:53;;;;;;;8.33;7.63;;;;;;;;;;5071229;28;20429;-57
2023/05/15 06:22:19;;;;;;;7.88;7.28;;;;;;;;;;5073355;28;20763;-59
2023/05/15 06:24:45;;;;;;;8.55;7.75;;;;;;;;;;5073389;28;20397;-58
2023/05/15 06:27:11;;;;;;;8.83;8.00;;;;;;;;;;5073251;28;20453;-58
2023/05/15 06:29:37;;;;;;;8.27;7.57;;;;;;;;;;5073253;28;20411;-58
2023/05/15 06:32:03;;;;;;;8.70;7.82;;;;;;;;;;5073147;28;20420;-58
2023/05/15 06:34:29;;;;;;;8.10;7.40;;;;;;;;;;5072931;28;20431;-58
2023/05/15 06:36:57;;;;;;;10.00;7.70;;;;;;;;;;5073412;28;20831;-58
2023/05/15 06:39:23;;;;;;;8.07;7.38;;;;;;;;;;5072960;28;20456;-58
2023/05/15 06:41:49;;;;;;;8.85;8.07;;;;;;;;;;5073073;28;20770;-58
2023/05/15 06:44:15;;;;;;;8.38;7.57;;;;;;;;;;5072923;28;20399;-57
2023/05/15 06:46:41;;;;;;;8.60;7.80;;;;;;;;;;5073076;28;20449;-57
2023/05/15 06:49:07;;;;;;;7.65;7.03;;;;;;;;;;5072988;28;20403;-57
2023/05/15 06:51:33;;;;;;;8.80;7.90;;;;;;;;;;5073160;28;20894;-57
2023/05/15 06:54:00;;;;;;;9.25;8.45;;;;;;;;;;5072867;28;20422;-57
2023/05/15 06:56:26;;;;;;;10.07;9.17;;;;;;;;;;5072681;28;20548;-57
2023/05/15 06:58:52;;;;;;;9.63;8.82;;;;;;;;;;5072889;28;20450;-57
2023/05/15 07:01:18;;;;;;;10.73;9.70;;;;;;;;;;5072769;28;20445;-57
2023/05/15 07:03:44;;;;;;;9.93;9.13;;;;;;;;;;5072662;28;20810;-57
2023/05/15 07:06:10;;;;;;;10.13;9.23;;;;;;;;;;5072656;28;20482;-58
2023/05/15 07:08:36;;;;;;;11.10;10.10;;;;;;;;;;5072669;28;20917;-58
2023/05/15 07:11:04;;;;;;;9.52;8.73;;;;;;;;;;5072558;28;20403;-58
2023/05/15 07:13:30;;;;;;;9.48;8.68;;;;;;;;;;5072470;28;20412;-58
2023/05/15 07:15:56;;;;;;;13.18;10.02;;;;;;;;;;5072379;28;20415;-58
2023/05/15 07:18:22;;;;;;;10.98;9.40;;;;;;;;;;5072452;28;20434;-58
2023/05/15 07:20:48;;;;;;;9.55;8.73;;;;;;;;;;5072511;28;20392;-58
2023/05/15 07:23:14;;;;;;;9.02;8.32;;;;;;;;;;5072272;28;20830;-58
2023/05/15 07:25:40;;;;;;;9.30;8.40;;;;;;;;;;5072226;28;20404;-58
2023/05/15 07:28:08;;;;;;;10.43;9.00;;;;;;;;;;5072572;28;20407;-58
2023/05/15 07:30:34;;;;;;;9.60;8.60;;;;;;;;;;5071856;28;20820;-58
2023/05/15 07:33:00;;;;;;;9.15;8.35;;;;;;;;;;5072171;28;20399;-58
2023/05/15 07:35:26;;;;;;;9.15;7.90;;;;;;;;;;5071983;28;20511;-58
2023/05/15 07:37:52;;;;;;;7.38;6.78;;;;;;;;;;5072291;28;20479;-59
2023/05/15 07:40:18;;;;;;;8.52;7.25;;;;;;;;;;5072181;28;20774;-59
2023/05/15 07:42:45;;;;;;;8.13;7.15;;;;;;;;;;5071869;28;20425;-58
2023/05/15 07:45:12;;;;;;;7.88;6.97;;;;;;;;;;5071889;28;20469;-57
2023/05/15 07:47:38;;;;;;;6.85;6.15;;;;;;;;;;5071768;28;20410;-58
2023/05/15 07:50:05;;;;;;;7.00;6.30;;;;;;;;;;5072026;28;20494;-58
2023/05/15 07:52:31;;;;;;;8.00;6.43;;;;;;;;;;5071833;28;20399;-56
2023/05/15 07:54:57;;;;;;;7.05;6.43;;;;;;;;;;5071773;28;20489;-58
2023/05/15 07:57:24;;;;;;;6.45;5.85;;;;;;;;;;5071736;28;20399;-61
2023/05/15 07:59:50;;;;;;;6.72;6.05;;;;;;;;;;5071958;28;20391;-59
2023/05/15 08:02:17;;;;;;;6.95;6.13;;;;;;;;;;5071614;28;20407;-59
2023/05/15 08:04:43;;;;;;;5.93;5.32;;;;;;;;;;5071488;28;20411;-59
2023/05/15 08:07:09;;;;;;;7.82;7.03;;;;;;;;;;5071689;28;20785;-59
2023/05/15 08:09:35;;;;;;;6.55;5.85;;;;;;;;;;5071564;28;20412;-60
2023/05/15 08:12:16;;;;;;;6.97;6.33;;;;;;;;;;5071263;28;20457;-63
2023/05/15 08:14:42;;;;;;;7.68;6.00;;;;;;;;;;5071272;28;20408;-62
2023/05/15 08:17:08;;;;;;;7.15;6.45;;;;;;;;;;5071374;28;20461;-59
2023/05/15 08:19:35;;;;;;;7.65;6.60;;;;;;;;;;5071321;28;20404;-59
2023/05/15 08:22:01;;;;;;;7.97;6.90;;;;;;;;;;5071316;28;20404;-58
2023/05/15 08:24:27;;;;;;;7.10;6.40;;;;;;;;;;5071081;28;20772;-61
2023/05/15 08:26:53;;;;;;;6.40;5.72;;;;;;;;;;5071275;28;20400;-60
2023/05/15 08:29:19;;;;;;;7.27;6.63;;;;;;;;;;5071220;28;20415;-60
2023/05/15 08:31:45;;;;;;;7.30;6.60;;;;;;;;;;5070928;28;20400;-59
2023/05/15 08:34:11;;;;;;;8.00;5.90;;;;;;;;;;5071098;28;20396;-58
2023/05/15 08:36:39;;;;;;;7.47;6.23;;;;;;;;;;5072354;28;20291;-58
2023/05/15 08:39:05;;;;;;;6.23;5.70;;;;;;;;;;5072444;28;20569;-58
2023/05/15 08:41:32;;;;;;;6.30;5.70;;;;;;;;;;5071887;28;20205;-58
2023/05/15 08:44:00;;;;;;;9.43;5.50;;;;;;;;;;5072517;28;20279;-60
2023/05/15 08:46:26;;;;;;;7.60;6.80;;;;;;;;;;5072093;28;20212;-60
2023/05/15 08:48:52;;;;;;;6.10;5.50;;;;;;;;;;5072321;28;20326;-60
2023/05/15 08:51:19;;;;;;;6.23;5.53;;;;;;;;;;5072261;28;20196;-60
2023/05/15 08:53:47;;;;;;;8.33;6.67;;;;;;;;;;5071986;28;20655;-60
2023/05/15 08:56:13;;;;;;;6.83;6.07;;;;;;;;;;5071971;28;20670;-60
2023/05/15 08:58:39;;;;;;;6.67;5.97;;;;;;;;;;5072110;28;20208;-58
2023/05/15 09:01:05;;;;;;;6.77;5.70;;;;;;;;;;5072171;28;20192;-59
2023/05/15 09:03:31;;;;;;;6.93;6.23;;;;;;;;;;5071840;28;20274;-60
2023/05/15 09:05:58;;;;;;;6.07;5.57;;;;;;;;;;5072019;28;20656;-60
2023/05/15 09:08:24;;;;;;;6.63;5.83;;;;;;;;;;5071756;28;20195;-57
2023/05/15 09:10:52;;;;;;;10.43;6.27;;;;;;;;;;5072027;28;20205;-60
2023/05/15 09:13:18;;;;;;;6.40;5.90;;;;;;;;;;5071658;28;20216;-58
2023/05/15 09:15:46;;;;;;;6.83;6.23;;;;;;;;;;5071660;28;20194;-58
2023/05/15 09:18:13;;;;;;;6.53;5.93;;;;;;;;;;5069740;28;20203;-58
2023/05/15 09:20:39;;;;;;;9.00;5.97;;;;;;;;;;5071298;28;20197;-57
2023/05/15 09:23:05;;;;;;;6.00;5.40;;;;;;;;;;5071359;28;20609;-58
2023/05/15 09:25:33;;;;;;;6.57;5.90;;;;;;;;;;5071089;28;20217;-60
2023/05/15 09:28:00;;;;;;;6.57;5.97;;;;;;;;;;5071200;28;20286;-58
2023/05/15 09:30:26;;;;;;;7.80;6.70;;;;;;;;;;5071340;28;20317;-58
2023/05/15 09:32:53;;;;;;;6.40;5.80;;;;;;;;;;5071064;28;20608;-57
2023/05/15 09:35:30;;;;;;;6.60;5.90;;;;;;;;;;5070934;28;20790;-58
2023/05/15 09:37:59;;;;;;;7.03;6.43;;;;;;;;;;5071160;28;20207;-57
2023/05/15 09:40:29;;;;;;;6.60;6.00;;;;;;;;;;5070736;28;20253;-58
2023/05/15 09:42:55;;;;;;;6.90;6.30;;;;;;;;;;5071198;28;20607;-58
2023/05/15 09:45:24;;;;;;;7.07;6.40;;;;;;;;;;5071242;28;20236;-57
2023/05/15 09:47:50;;;;;;;7.07;6.33;;;;;;;;;;5071072;28;20201;-58
2023/05/15 09:50:20;;;;;;;7.60;6.90;;;;;;;;;;5069065;28;20235;-58
2023/05/15 09:52:46;;;;;;;7.40;6.70;;;;;;;;;;5070966;28;20614;-58
2023/05/15 09:55:15;;;;;;;8.87;6.73;;;;;;;;;;5074997;28;20717;-57
2023/05/15 09:57:42;;;;;;;7.10;6.40;;;;;;;;;;5075126;28;20203;-57
2023/05/15 10:00:10;;;;;;;6.83;6.13;;;;;;;;;;5075158;28;20188;-58
2023/05/15 10:02:40;;;;;;;7.80;6.53;;;;;;;;;;5075181;28;20220;-58
2023/05/15 10:05:06;;;;;;;9.50;6.13;;;;;;;;;;5074947;28;20604;-59
2023/05/15 10:07:34;;;;;;;7.13;5.33;;;;;;;;;;5074901;28;20197;-58
2023/05/15 10:10:01;;;;;;;6.27;5.67;;;;;;;;;;5074918;28;20250;-58
2023/05/15 10:12:28;;;;;;;9.17;6.00;;;;;;;;;;5072617;28;20679;-58
2023/05/15 10:14:55;;;;;;;13.30;6.40;;;;;;;;;;5074434;28;20198;-58
2023/05/15 10:17:22;;;;;;;6.17;5.57;;;;;;;;;;5074785;28;20202;-58
2023/05/15 10:19:50;;;;;;;7.00;5.90;;;;;;;;;;5074288;28;20288;-59
2023/05/15 10:22:18;;;;;;;6.47;5.87;;;;;;;;;;5074654;28;20421;-59
2023/05/15 10:24:46;;;;;;;6.33;4.93;;;;;;;;;;5074388;28;20208;-58
2023/05/15 10:27:13;;;;;;;6.83;6.10;;;;;;;;;;5074400;28;20282;-59
2023/05/15 10:29:39;;;;;;;8.23;7.47;;;;;;;;;;5074242;28;20797;-58
2023/05/15 10:32:05;;;;;;;10.83;9.73;;;;;;;;;;5074484;28;20789;-58
2023/05/15 10:34:31;;;;;;;10.57;9.57;;;;;;;;;;5074140;28;20243;-59
2023/05/15 10:36:59;;;;;;;11.00;9.60;;;;;;;;;;5074037;28;20256;-58
2023/05/15 10:39:27;;;;;;;9.20;8.40;;;;;;;;;;5074173;28;20206;-58
2023/05/15 10:41:53;;;;;;;8.60;6.17;;;;;;;;;;5074198;28;20300;-58
2023/05/15 10:44:20;;;;;;;4.70;4.30;;;;;;;;;;5074789;28;20261;-59
2023/05/15 10:46:46;;;;;;;4.77;4.27;;;;;;;;;;5073833;28;20199;-59
2023/05/15 10:49:12;;;;;;;7.20;6.50;;;;;;;;;;5073968;28;20720;-59
2023/05/15 10:51:39;;;;;;;6.73;6.13;;;;;;;;;;5073946;28;20665;-59
2023/05/15 10:54:08;;;;;;;8.20;7.47;;;;;;;;;;5074219;28;20211;-59
2023/05/15 10:56:36;;;;;;;8.93;6.40;;;;;;;;;;5073957;28;20195;-59
2023/05/15 10:59:06;;;;;;;4.93;4.20;;;;;;;;;;5074048;28;20196;-60
2023/05/15 11:01:33;;;;;;;4.80;4.40;;;;;;;;;;5073911;28;20225;-59
2023/05/15 11:04:10;;;;;;;5.90;5.30;;;;;;;;;;5073721;28;20559;-60
2023/05/15 11:06:36;;;;;;;6.30;4.87;;;;;;;;;;5072754;28;20205;-59
2023/05/15 11:09:21;;;;;;;5.23;4.60;;;;;;;;;;5073797;28;20696;-59
2023/05/15 11:11:55;;;;;;;5.00;4.33;;;;;;;;;;5073593;28;20176;-60
2023/05/15 11:14:22;;;;;;;6.00;4.13;;;;;;;;;;5073857;28;20264;-59
2023/05/15 11:17:02;;;;;;;5.13;3.60;;;;;;;;;;5073622;28;20210;-59
2023/05/15 11:19:33;;;;;;;3.30;3.00;;;;;;;;;;5073612;28;20320;-59
2023/05/15 11:22:01;;;;;;;7.33;3.70;;;;;;;;;;5073482;28;20196;-59
2023/05/15 11:24:27;;;;;;;7.10;4.90;;;;;;;;;;5073460;28;20697;-60
2023/05/15 11:26:59;;;;;;;6.50;4.30;;;;;;;;;;5073301;28;20556;-60
2023/05/15 11:29:25;;;;;;;5.93;4.67;;;;;;;;;;5073447;28;20229;-59
2023/05/15 11:31:51;;;;;;;4.33;3.33;;;;;;;;;;5073371;28;20197;-59
2023/05/15 11:34:28;;;;;;;4.63;3.40;;;;;;;;;;5073258;28;20201;-60
2023/05/15 11:36:54;;;;;;;4.20;3.80;;;;;;;;;;5073048;28;20687;-60
2023/05/15 11:39:23;;;;;;;6.13;4.03;;;;;;;;;;5073510;28;20188;-59
2023/05/15 11:41:49;;;;;;;3.90;3.27;;;;;;;;;;5073143;28;20571;-59
2023/05/15 11:44:20;;;;;;;5.73;3.60;;;;;;;;;;5073278;28;20220;-58
2023/05/15 11:46:46;;;;;;;6.17;3.63;;;;;;;;;;5072950;28;20579;-58
2023/05/15 11:49:14;;;;;;;5.73;4.60;;;;;;;;;;5073033;28;20227;-59
2023/05/15 11:51:42;;;;;;;5.73;4.30;;;;;;;;;;5073064;28;20206;-59
2023/05/15 11:54:10;;;;;;;6.37;5.10;;;;;;;;;;5073011;28;20207;-59
2023/05/15 11:56:42;;;;;;;5.80;4.27;;;;;;;;;;5072892;28;20285;-58
2023/05/15 11:59:09;;;;;;;4.90;4.40;;;;;;;;;;5072887;28;20202;-58
2023/05/15 12:01:40;;;;;;;4.60;4.20;;;;;;;;;;5072730;28;20656;-59
2023/05/15 12:04:11;;;;;;;7.07;4.97;;;;;;;;;;5072561;28;20234;-58
2023/05/15 12:06:37;;;;;;;5.33;4.90;;;;;;;;;;5071760;28;20357;-58
2023/05/15 12:09:03;;;;;;;5.23;4.83;;;;;;;;;;5071511;28;20230;-59
2023/05/15 12:11:30;;;;;;;5.77;5.27;;;;;;;;;;5071293;28;20529;-59
2023/05/15 12:13:56;;;;;;;5.63;5.13;;;;;;;;;;5070857;28;20248;-59
2023/05/15 12:16:24;;;;;;;5.73;5.27;;;;;;;;;;5070597;28;20209;-58
2023/05/15 12:18:52;;;;;;;5.50;5.00;;;;;;;;;;5070581;28;20218;-58
2023/05/15 12:21:18;;;;;;;5.50;4.63;;;;;;;;;;5071236;28;20211;-58
2023/05/15 12:23:49;;;;;;;4.80;4.40;;;;;;;;;;5071724;28;20274;-58
2023/05/15 12:26:15;;;;;;;4.50;4.10;;;;;;;;;;5072273;28;20200;-58
2023/05/15 12:28:41;;;;;;;4.67;4.27;;;;;;;;;;5072171;28;20199;-58
2023/05/15 12:31:09;;;;;;;5.37;4.87;;;;;;;;;;5072355;28;20558;-58
2023/05/15 12:33:35;;;;;;;5.83;5.00;;;;;;;;;;5072178;28;20195;-58
2023/05/15 12:36:03;;;;;;;6.00;4.30;;;;;;;;;;5071959;28;20325;-57
2023/05/15 12:38:29;;;;;;;6.53;4.23;;;;;;;;;;5072181;28;20199;-58
2023/05/15 12:40:56;;;;;;;6.27;4.60;;;;;;;;;;5071597;28;20191;-58
2023/05/15 12:43:24;;;;;;;4.60;4.20;;;;;;;;;;5072030;28;20204;-59
2023/05/15 12:45:51;;;;;;;3.93;3.60;;;;;;;;;;5071980;28;20738;-59
2023/05/15 12:48:17;;;;;;;3.43;2.87;;;;;;;;;;5071988;28;20250;-59
2023/05/15 12:50:44;;;;;;;3.53;3.23;;;;;;;;;;5072074;28;20227;-59
2023/05/15 12:53:12;;;;;;;5.00;4.17;;;;;;;;;;5071834;28;20235;-60
2023/05/15 12:55:39;;;;;;;4.57;4.03;;;;;;;;;;5071805;28;20206;-58
2023/05/15 12:58:06;;;;;;;3.77;3.47;;;;;;;;;;5071794;28;20200;-59
2023/05/15 13:00:33;;;;;;;3.93;3.20;;;;;;;;;;5071611;28;20204;-59
2023/05/15 13:03:00;;;;;;;4.67;3.17;;;;;;;;;;5071633;28;20197;-59
2023/05/15 13:05:26;;;;;;;3.43;3.00;;;;;;;;;;5071556;28;20229;-59
2023/05/15 13:07:52;;;;;;;3.60;2.50;;;;;;;;;;5071346;28;20259;-58
2023/05/15 13:10:22;;;;;;;4.10;3.17;;;;;;;;;;5071499;28;20264;-59
2023/05/15 13:12:48;;;;;;;3.03;2.73;;;;;;;;;;5071338;28;20198;-59
2023/05/15 13:15:22;;;;;;;3.67;2.47;;;;;;;;;;5071230;28;20202;-59
2023/05/15 13:17:48;;;;;;;6.77;3.30;;;;;;;;;;5071310;28;20297;-59
2023/05/15 13:20:14;;;;;;;5.20;2.90;;;;;;;;;;5071375;28;20297;-59
2023/05/15 13:22:40;;;;;;;3.40;3.00;;;;;;;;;;5071190;28;20615;-59
2023/05/15 13:25:08;;;;;;;4.70;3.40;;;;;;;;;;5071172;28;20205;-59
2023/05/15 13:27:35;;;;;;;3.97;3.57;;;;;;;;;;5071376;28;20195;-59
2023/05/15 13:30:01;;;;;;;4.60;3.20;;;;;;;;;;5070841;28;20229;-59
2023/05/15 13:32:27;;;;;;;2.90;2.70;;;;;;;;;;5071373;28;20194;-59
2023/05/15 13:34:53;;;;;;;4.57;3.30;;;;;;;;;;5070854;28;20197;-59
2023/05/15 13:37:19;;;;;;;3.83;3.00;;;;;;;;;;5071232;28;20221;-59
2023/05/15 13:39:45;;;;;;;4.83;2.90;;;;;;;;;;5070991;28;20249;-59
2023/05/15 13:42:11;;;;;;;6.23;3.33;;;;;;;;;;5071024;28;20204;-60
2023/05/15 13:44:39;;;;;;;3.60;3.30;;;;;;;;;;5071193;28;20200;-57
2023/05/15 13:47:05;;;;;;;4.50;2.90;;;;;;;;;;5071104;28;20215;-58
2023/05/15 13:49:31;;;;;;;4.33;3.30;;;;;;;;;;5070845;28;20287;-58
2023/05/15 13:51:57;;;;;;;5.87;3.57;;;;;;;;;;5070849;28;20543;-57
2023/05/15 13:54:23;;;;;;;4.30;3.47;;;;;;;;;;5070994;28;20194;-57
2023/05/15 13:56:49;;;;;;;5.23;3.03;;;;;;;;;;5070927;28;20659;-59
2023/05/15 13:59:15;;;;;;;5.60;3.60;;;;;;;;;;5070884;28;20200;-60
2023/05/15 14:01:42;;;;;;;6.07;3.13;;;;;;;;;;5070899;28;20204;-60
2023/05/15 14:04:09;;;;;;;4.53;3.60;;;;;;;;;;5070790;28;20331;-60
2023/05/15 14:06:34;;;;;;;4.50;3.40;;;;;;;;;;5070882;28;20639;-59
2023/05/15 14:09:01;;;;;;;4.33;3.50;;;;;;;;;;5070601;28;20223;-57
2023/05/15 14:11:27;;;;;;;3.40;3.10;;;;;;;;;;5070567;28;20705;-58
2023/05/15 14:13:52;;;;;;;3.90;3.60;;;;;;;;;;5070779;28;20199;-57
2023/05/15 14:16:18;;;;;;;4.43;3.27;;;;;;;;;;5070840;28;20319;-57
2023/05/15 14:18:46;;;;;;;3.63;3.33;;;;;;;;;;5070643;28;20186;-59
2023/05/15 14:21:12;;;;;;;3.60;3.30;;;;;;;;;;5068663;28;20207;-59
2023/05/15 14:23:38;;;;;;;4.57;3.50;;;;;;;;;;5070317;28;20328;-59
2023/05/15 14:26:04;;;;;;;3.90;3.50;;;;;;;;;;5070510;28;20202;-59
2023/05/15 14:28:30;;;;;;;3.97;3.57;;;;;;;;;;5070525;28;20286;-59
2023/05/15 14:30:56;;;;;;;4.27;3.90;;;;;;;;;;5070370;28;20237;-59
2023/05/15 14:33:22;;;;;;;3.73;3.43;;;;;;;;;;5070614;28;20194;-59
2023/05/15 14:35:49;;;;;;;4.17;3.87;;;;;;;;;;5070317;28;20253;-59
2023/05/15 14:38:15;;;;;;;6.53;5.93;;;;;;;;;;5070488;28;20207;-60
2023/05/15 14:40:41;;;;;;;6.30;5.70;;;;;;;;;;5071278;28;20196;-59